Carbonado, WA (98323)

11:24 PM PDT on March 22, 2017 (GMT -0700)
Blacktail Ridge | | Change Station
Active Advisory: Flood Warning

Elev 1089 ft 47.09 °N, 122.06 °W | Updated 13 seconds ago

Overcast
Overcast
38.7 °F
Feels Like 39 °F
N
0.0
Wind Variable Wind from SE
Gusts 0.0 mph

Today
High -- | Low -- °F
--% Chance of Precip.
Yesterday
High -- | Low -- °F
Precip. -- in
Pressure 30.08 in
Visibility 10.0 miles
Clouds Few 2500 ft
Mostly Cloudy 3100 ft
Mostly Cloudy 4700 ft
Windchill 39 °F
Dew Point 37 °F
Humidity 94%
Rainfall 0.24 in
Snow Depth Not available.
7:06 AM 7:24 PM
Waning Crescent, 26% visible
SPECI KTCM 230607Z AUTO 18004KT 10SM FEW025 BKN031 BKN047 06/05 A3008 RMK AO2 RAE07 $
Pressure 30.08 in
Visibility 10.0 miles
Clouds Few 2500 ft
Mostly Cloudy 3100 ft
Mostly Cloudy 4700 ft
Windchill 39 °F
Dew Point 37 °F
Humidity 94%
Rainfall 0.24 in
Snow Depth Not available.
7:06 AM 7:24 PM
Waning Crescent, 26% visible
SPECI KTCM 230607Z AUTO 18004KT 10SM FEW025 BKN031 BKN047 06/05 A3008 RMK AO2 RAE07 $

Get Your Daily Forecast Email!

Thanks for signing up!

Be on the lookout for a verification email in your inbox.

You'll start receiving severe weather alerts in your inbox..

×

10-Day Weather Forecast

Almanac

Astronomy

Mar. 22, 2017 Rise Set
Actual Time
Civil Twilight
Nautical Twilight
Astronomical Twilight
Moon
Length of Visible Light
Length of Day
Tomorrow will be .
, % of the Moon is Illuminated

Today's Extremes

State Highs State Lows

Community

WunderPhotos

Upload Photos

1,962,540 photos uploaded!

WunderBlog® & News

Nearby

Air Quality

  Air Quality AQ Index Pollutant
Not available.

Snow Depth

Station Depth Elevation

Earthquake Activity

City Distance Mag. Time & Date
Minimum magnitude displayed is 2.5.

Earthquake Activity

City Distance Mag. Time & Date
Minimum magnitude displayed is 2.5.

Coastal Water Temperatures

Place Temperature

Stations

Nearby Weather Stations

Station Location Temp. Windchill Dew Point Humidity Wind Precip. Elev Updated Type
                   

Watches & Warnings

Flood Warning
Issued: 10:52 PM PDT Mar. 22, 2017 – National Weather Service

The Flood Warning continues for
the White River at r street
* from 6 am Monday until Friday morning.
* At 8:45 PM Wednesday the flow was 5320 cfs.
* Flood flow is 5500 cfs.
* Minor flooding is forecast.
* Forecast... the river will remain near the flood flow of 5500 cfs
through Friday afternoon.
* Impact... at 5500 cfs, river flooding is likely to occur near low
bank areas around and downstream of the Stewart street bridge in
the city of Sumner.


Lat... Lon 4721 12214 4724 12219 4719 12223 4724 12230 4732 12226
      4732 12214